Time;durP1;ratioP1;P1;durP2;ratioP2;P2;SDS_P1;SDS_P2;PMS_P1;PMS_P2;Temp;Humidity;BMP_temperature;BMP_pressure;BME280_temperature;BME280_humidity;BME280_pressure;Samples;Min_cycle;Max_cycle;Signal;HPM_P1;HPM_P2
2021/07/20 00:04:17;;;;;;;0.10;0.10;;;;;;;12.99;84.21;102122.34;10405403;28;20441;-58
2021/07/20 00:09:18;;;;;;;0.10;0.10;;;;;;;12.89;84.84;102132.22;10410837;28;20029;-61
2021/07/20 00:14:18;;;;;;;0.10;0.10;;;;;;;12.82;85.65;102125.75;10409989;28;20025;-56
2021/07/20 00:19:18;;;;;;;0.10;0.10;;;;;;;12.79;85.83;102124.19;10410747;28;20071;-60
2021/07/20 00:24:19;;;;;;;0.10;0.10;;;;;;;12.76;85.73;102124.47;10395115;28;20028;-60
2021/07/20 00:29:19;;;;;;;0.10;0.10;;;;;;;12.70;86.22;102127.72;10406208;28;20029;-58
2021/07/20 00:34:19;;;;;;;0.00;0.00;;;;;;;12.64;86.87;102131.78;10409171;28;20071;-57
2021/07/20 00:39:19;;;;;;;0.00;0.00;;;;;;;12.57;87.24;102127.19;10409496;28;20025;-59
2021/07/20 00:44:20;;;;;;;0.10;0.10;;;;;;;12.50;87.18;102132.22;10409673;28;20021;-60
2021/07/20 00:49:20;;;;;;;0.10;0.10;;;;;;;12.40;87.32;102142.91;10409326;28;20021;-60
2021/07/20 00:54:20;;;;;;;0.10;0.10;;;;;;;12.34;87.92;102139.94;10399810;28;20022;-61
2021/07/20 00:59:21;;;;;;;0.10;0.10;;;;;;;12.29;87.72;102142.19;10406005;28;20199;-60
2021/07/20 01:04:22;;;;;;;0.10;0.10;;;;;;;12.26;88.58;102134.44;10408736;28;20047;-60
2021/07/20 01:09:25;;;;;;;0.10;0.10;;;;;;;12.33;87.39;102136.41;10408220;28;20025;-57
2021/07/20 01:14:26;;;;;;;0.10;0.10;;;;;;;12.24;87.98;102131.91;10408063;28;20120;-59
2021/07/20 01:19:32;;;;;;;0.10;0.10;;;;;;;12.20;88.11;102131.34;10408472;28;20014;-57
2021/07/20 01:24:32;;;;;;;0.10;0.10;;;;;;;12.13;88.21;102129.34;10401186;28;20037;-57
2021/07/20 01:29:33;;;;;;;0.10;0.10;;;;;;;12.06;88.20;102117.53;10400471;28;20436;-57
2021/07/20 01:34:34;;;;;;;0.10;0.10;;;;;;;12.01;89.80;102109.94;10407541;28;20026;-60
2021/07/20 01:39:36;;;;;;;0.10;0.10;;;;;;;12.04;90.70;102098.97;10407947;28;20439;-59
2021/07/20 01:44:37;;;;;;;0.10;0.10;;;;;;;12.08;90.86;102095.06;10408320;28;20439;-59
2021/07/20 01:49:38;;;;;;;0.10;0.10;;;;;;;12.14;91.26;102099.84;10407635;28;20906;-55
2021/07/20 01:54:44;;;;;;;0.10;0.10;;;;;;;12.19;91.31;102107.47;10403520;28;20099;-59
2021/07/20 01:59:46;;;;;;;0.10;0.10;;;;;;;12.23;90.99;102104.34;10403787;28;20554;-58
2021/07/20 02:10:07;;;;;;;0.10;0.10;;;;;;;12.34;90.35;102107.91;10415471;28;20389;-60
2021/07/20 02:15:08;;;;;;;0.10;0.10;;;;;;;12.32;90.05;102117.88;10415738;28;20017;-58
2021/07/20 02:20:18;;;;;;;0.10;0.10;;;;;;;12.26;89.63;102105.06;10415227;28;20041;-58
2021/07/20 02:25:19;;;;;;;0.00;0.00;;;;;;;12.22;90.41;102110.69;10407016;28;20099;-59
2021/07/20 02:30:20;;;;;;;0.10;0.10;;;;;;;12.19;90.22;102105.63;10410081;28;20018;-56
2021/07/20 02:35:24;;;;;;;0.05;0.05;;;;;;;12.20;89.74;102109.97;10413171;28;20036;-59
2021/07/20 02:40:26;;;;;;;0.10;0.10;;;;;;;12.13;90.01;102114.19;10414374;28;20426;-55
2021/07/20 02:45:31;;;;;;;0.00;0.00;;;;;;;12.05;90.12;102110.53;10429989;28;20465;-58
2021/07/20 02:50:33;;;;;;;0.10;0.10;;;;;;;11.96;90.41;102104.19;10413635;28;20293;-56
2021/07/20 02:55:35;;;;;;;0.10;0.10;;;;;;;11.70;89.66;102109.97;10404913;28;20029;-55
2021/07/20 03:00:38;;;;;;;0.10;0.10;;;;;;;11.55;89.84;102109.50;10410984;28;20040;-60
2021/07/20 03:05:40;;;;;;;0.10;0.10;;;;;;;11.49;90.41;102120.69;10413739;28;20043;-58
2021/07/20 03:10:42;;;;;;;0.10;0.10;;;;;;;11.43;89.86;102118.56;10412885;28;20014;-56
2021/07/20 03:15:42;;;;;;;0.00;0.00;;;;;;;11.38;89.53;102114.63;10413484;28;20522;-57
2021/07/20 03:20:43;;;;;;;0.10;0.10;;;;;;;11.32;89.58;102114.16;10412745;28;20045;-57
2021/07/20 03:25:45;;;;;;;0.10;0.10;;;;;;;11.26;89.13;102120.03;10401706;28;20026;-57
2021/07/20 03:30:45;;;;;;;0.10;0.10;;;;;;;11.28;89.16;102126.06;10407584;28;20036;-60
2021/07/20 03:35:48;;;;;;;0.10;0.10;;;;;;;11.43;89.49;102129.25;10412447;28;20025;-59
2021/07/20 03:40:51;;;;;;;0.10;0.10;;;;;;;11.76;89.29;102135.28;10412079;28;20472;-58
2021/07/20 03:45:54;;;;;;;0.05;0.05;;;;;;;12.22;87.67;102137.41;10410552;28;20021;-59
2021/07/20 03:50:54;;;;;;;0.10;0.10;;;;;;;12.55;86.83;102138.00;10411544;28;20106;-58
2021/07/20 03:55:57;;;;;;;0.10;0.10;;;;;;;13.05;86.58;102142.31;10401094;28;20029;-56
2021/07/20 04:01:00;;;;;;;0.10;0.10;;;;;;;13.80;85.83;102129.88;10351223;28;20461;-59
2021/07/20 04:06:04;;;;;;;0.10;0.10;;;;;;;14.67;83.63;102131.16;10374429;28;20026;-59
2021/07/20 04:11:05;;;;;;;0.10;0.10;;;;;;;14.85;82.37;102131.97;10361920;28;20025;-57
2021/07/20 04:16:07;;;;;;;0.00;0.00;;;;;;;14.58;84.21;102134.75;10407783;28;20021;-57
2021/07/20 04:21:08;;;;;;;0.10;0.10;;;;;;;14.45;84.56;102133.25;10410253;28;20104;-57
2021/07/20 04:26:09;;;;;;;0.10;0.10;;;;;;;14.40;85.17;102132.88;10387284;28;20105;-59
2021/07/20 04:31:11;;;;;;;0.00;0.00;;;;;;;14.96;85.10;102138.94;10407906;28;20108;-60
2021/07/20 04:36:13;;;;;;;0.00;0.00;;;;;;;15.62;81.99;102142.88;10410492;28;20404;-60
2021/07/20 04:41:17;;;;;;;0.10;0.10;;;;;;;15.59;81.63;102138.66;10409511;28;20504;-61
2021/07/20 04:46:20;;;;;;;0.10;0.10;;;;;;;15.55;81.56;102142.66;10409572;28;20021;-60
2021/07/20 04:51:22;;;;;;;0.00;0.00;;;;;;;15.56;81.56;102146.19;10408094;28;20389;-60
2021/07/20 04:56:23;;;;;;;0.10;0.10;;;;;;;15.58;81.20;102146.88;10398165;28;20021;-60
2021/07/20 05:01:24;;;;;;;0.00;0.00;;;;;;;15.56;80.87;102148.88;10407232;28;20033;-60
2021/07/20 05:06:25;;;;;;;0.10;0.10;;;;;;;15.51;81.10;102154.75;10408845;28;20469;-58
2021/07/20 05:11:26;;;;;;;0.10;0.10;;;;;;;15.55;81.36;102161.47;10408509;28;20021;-60
2021/07/20 05:16:27;;;;;;;0.00;0.00;;;;;;;15.54;81.48;102167.84;10407200;28;20032;-62
2021/07/20 05:21:28;;;;;;;0.10;0.10;;;;;;;15.52;81.50;102169.00;10406966;28;20103;-60
2021/07/20 05:26:30;;;;;;;0.10;0.10;;;;;;;15.55;82.04;102174.06;10394233;28;20026;-60
2021/07/20 05:31:32;;;;;;;0.00;0.00;;;;;;;15.58;81.01;102177.25;10408105;28;20110;-59
2021/07/20 05:36:34;;;;;;;0.10;0.10;;;;;;;15.80;79.50;102180.44;10408446;28;20502;-60
2021/07/20 05:41:38;;;;;;;0.00;0.00;;;;;;;16.09;78.36;102177.38;10415483;28;20111;-57
2021/07/20 05:46:42;;;;;;;0.10;0.10;;;;;;;16.30;77.05;102172.38;10416794;28;20021;-61
2021/07/20 05:51:43;;;;;;;0.00;0.00;;;;;;;16.41;75.81;102173.09;10403685;28;20088;-59
2021/07/20 05:56:47;;;;;;;0.10;0.10;;;;;;;16.54;75.98;102170.75;10408822;28;20108;-61
2021/07/20 06:01:51;;;;;;;0.10;0.10;;;;;;;16.77;74.97;102181.75;10411059;28;20041;-61
2021/07/20 06:06:52;;;;;;;0.10;0.10;;;;;;;17.01;73.70;102175.50;10415699;28;20021;-61
2021/07/20 06:11:52;;;;;;;0.10;0.10;;;;;;;17.34;74.00;102170.13;10415443;28;20025;-61
2021/07/20 06:16:53;;;;;;;0.10;0.10;;;;;;;17.62;71.02;102170.53;10415867;28;20010;-59
2021/07/20 06:21:54;;;;;;;0.10;0.10;;;;;;;17.89;70.24;102172.00;10404723;28;20025;-60
2021/07/20 06:26:57;;;;;;;0.10;0.10;;;;;;;18.22;69.99;102167.28;10410405;28;20291;-60
2021/07/20 06:32:01;;;;;;;0.10;0.10;;;;;;;18.47;65.41;102168.00;10414319;28;20021;-61
2021/07/20 06:37:02;;;;;;;0.10;0.10;;;;;;;18.71;64.63;102172.38;10414745;28;20021;-58
2021/07/20 06:42:03;;;;;;;0.10;0.10;;;;;;;19.10;64.86;102171.41;10413888;28;20499;-60
2021/07/20 06:47:05;;;;;;;0.10;0.10;;;;;;;19.59;63.36;102180.88;10414155;28;20022;-60
2021/07/20 06:52:06;;;;;;;0.10;0.10;;;;;;;19.30;63.16;102187.94;10403534;28;20440;-60
2021/07/20 06:57:10;;;;;;;0.10;0.10;;;;;;;19.07;63.83;102176.31;10411526;28;20022;-61
2021/07/20 07:02:17;;;;;;;0.10;0.10;;;;;;;19.37;66.72;102178.06;10411106;28;20048;-60
2021/07/20 07:07:20;;;;;;;0.10;0.10;;;;;;;20.35;62.54;102173.34;10413266;28;20024;-61
2021/07/20 07:12:21;;;;;;;0.10;0.10;;;;;;;19.95;60.98;102180.13;10412646;28;20559;-62
2021/07/20 07:17:21;;;;;;;0.10;0.10;;;;;;;20.10;61.66;102173.69;10412996;28;20016;-60
2021/07/20 07:22:23;;;;;;;0.10;0.10;;;;;;;20.34;58.93;102171.69;10400172;28;20405;-61
2021/07/20 07:27:24;;;;;;;0.00;0.00;;;;;;;20.49;58.25;102175.16;10410324;28;20381;-61
2021/07/20 07:32:24;;;;;;;0.00;0.00;;;;;;;20.52;60.48;102171.25;10402631;28;20103;-61
2021/07/20 07:37:28;;;;;;;0.05;0.05;;;;;;;20.54;58.52;102169.22;10411144;28;20443;-60
2021/07/20 07:42:30;;;;;;;0.10;0.10;;;;;;;22.47;56.58;102162.31;10405401;28;20098;-59
2021/07/20 07:47:31;;;;;;;0.10;0.10;;;;;;;23.29;50.32;102163.81;10411603;28;20018;-60
2021/07/20 07:52:31;;;;;;;0.10;0.10;;;;;;;24.41;49.99;102156.31;10410827;28;20022;-63
2021/07/20 07:57:32;;;;;;;0.10;0.10;;;;;;;24.89;44.69;102163.13;10411429;28;20546;-62
2021/07/20 08:02:35;;;;;;;0.10;0.10;;;;;;;24.61;48.62;102162.50;10407855;28;20178;-59
2021/07/20 09:08:16;;;;;;;0.10;0.10;;;;;;;22.56;49.20;102169.22;10418606;22;20073;-63
2021/07/20 09:13:33;;;;;;;0.10;0.10;;;;;;;22.16;49.31;102177.22;10391263;28;20044;-63
2021/07/20 09:18:57;;;;;;;0.10;0.10;;;;;;;22.04;52.32;102176.13;10406900;28;20112;-63
2021/07/20 09:24:06;;;;;;;0.10;0.10;;;;;;;22.52;53.32;102179.66;10408655;28;20029;-63
2021/07/20 09:29:14;;;;;;;0.10;0.10;;;;;;;22.57;49.96;102179.91;10415401;28;20022;-63
2021/07/20 09:34:42;;;;;;;0.10;0.10;;;;;;;22.90;55.79;102184.53;10412456;28;20178;-63
2021/07/20 09:39:42;;;;;;;0.00;0.00;;;;;;;23.39;53.54;102186.00;10413704;28;20052;-63
2021/07/20 09:44:50;;;;;;;0.10;0.10;;;;;;;23.48;48.97;102190.16;10413649;28;20045;-63
2021/07/20 09:49:59;;;;;;;0.10;0.10;;;;;;;23.24;51.07;102179.94;10416780;28;20040;-62
2021/07/20 09:55:33;;;;;;;0.10;0.10;;;;;;;23.27;50.16;102176.78;10419812;28;20041;-63
2021/07/20 10:00:58;;;;;;;0.10;0.10;;;;;;;24.08;54.07;102170.94;10416983;28;20034;-63
2021/07/20 10:06:17;;;;;;;0.10;0.10;;;;;;;24.85;49.21;102168.19;10418921;28;20044;-64
2021/07/20 10:11:25;;;;;;;0.10;0.10;;;;;;;24.86;48.24;102175.31;10420501;28;20037;-64
2021/07/20 10:16:53;;;;;;;0.10;0.10;;;;;;;24.88;46.75;102165.03;10420774;28;20064;-64
2021/07/20 10:21:57;;;;;;;0.10;0.10;;;;;;;25.04;46.17;102156.25;10303244;28;20084;-63
2021/07/20 10:27:14;;;;;;;0.10;0.10;;;;;;;25.06;44.09;102159.63;10376190;28;20033;-63
2021/07/20 10:32:28;;;;;;;0.00;0.00;;;;;;;24.76;46.57;102158.63;10426202;28;20209;-63
2021/07/20 10:37:36;;;;;;;0.10;0.10;;;;;;;25.22;45.82;102149.22;10328533;28;20081;-63
2021/07/20 10:42:53;;;;;;;0.10;0.10;;;;;;;25.05;45.07;102146.22;10399736;28;20030;-63
2021/07/20 10:48:01;;;;;;;0.00;0.00;;;;;;;24.36;46.59;102143.34;10425639;28;20029;-63
2021/07/20 10:53:10;;;;;;;0.10;0.10;;;;;;;24.33;47.07;102141.06;10383885;28;20045;-63
2021/07/20 10:58:43;;;;;;;0.10;0.10;;;;;;;24.42;47.86;102146.25;10382706;28;20084;-64
2021/07/20 11:04:18;;;;;;;0.00;0.00;;;;;;;24.33;48.37;102130.19;10342259;28;20057;-63
2021/07/20 11:09:21;;;;;;;0.10;0.10;;;;;;;23.78;46.40;102126.28;10374911;28;20382;-64
2021/07/20 11:14:32;;;;;;;0.10;0.10;;;;;;;24.29;49.68;102123.50;10382461;28;20074;-62
2021/07/20 11:19:33;;;;;;;0.00;0.00;;;;;;;24.75;48.60;102124.25;10382306;28;20041;-63
2021/07/20 11:24:34;;;;;;;0.10;0.10;;;;;;;24.60;48.39;102121.84;10381604;28;20041;-64
2021/07/20 11:29:35;;;;;;;0.10;0.10;;;;;;;24.29;50.14;102126.25;10380189;28;20088;-62
2021/07/20 11:34:40;;;;;;;0.00;0.00;;;;;;;23.94;50.27;102131.25;10377955;28;20096;-62
2021/07/20 11:39:48;;;;;;;0.10;0.10;;;;;;;23.71;52.32;102134.50;10377657;28;20543;-64
2021/07/20 11:44:55;;;;;;;0.10;0.10;;;;;;;23.41;53.25;102139.53;10378372;28;20462;-64
2021/07/20 11:50:13;;;;;;;0.10;0.10;;;;;;;23.11;54.47;102148.19;10377578;28;20084;-64
2021/07/20 11:55:39;;;;;;;0.10;0.10;;;;;;;23.24;53.86;102147.31;10379981;28;20068;-64
2021/07/20 12:01:06;;;;;;;0.10;0.10;;;;;;;23.48;53.23;102151.25;10380661;28;20061;-63
2021/07/20 12:06:21;;;;;;;0.10;0.10;;;;;;;23.65;53.43;102143.44;10379503;28;20105;-64
2021/07/20 12:11:28;;;;;;;0.10;0.10;;;;;;;24.00;53.02;102134.97;10360755;28;20133;-63
2021/07/20 12:16:28;;;;;;;0.00;0.00;;;;;;;24.23;53.08;102132.56;10379286;28;20032;-64
2021/07/20 12:21:31;;;;;;;0.10;0.10;;;;;;;24.28;51.21;102130.00;10376695;28;20113;-64
2021/07/20 12:26:31;;;;;;;0.00;0.00;;;;;;;24.63;51.09;102132.31;10376383;28;20021;-63
2021/07/20 12:31:32;;;;;;;0.10;0.10;;;;;;;24.65;50.39;102127.47;10378958;28;20077;-65
2021/07/20 12:36:34;;;;;;;0.10;0.10;;;;;;;24.54;51.30;102125.47;10377588;28;20112;-63
2021/07/20 12:41:36;;;;;;;0.10;0.10;;;;;;;24.49;54.10;102126.09;10403784;28;20564;-63
2021/07/20 12:46:39;;;;;;;0.10;0.10;;;;;;;24.19;50.40;102120.41;10415484;28;20037;-63
2021/07/20 12:51:51;;;;;;;0.00;0.00;;;;;;;23.85;53.02;102111.63;10415596;28;20116;-64
2021/07/20 12:56:52;;;;;;;0.00;0.00;;;;;;;23.79;51.90;102115.19;10415556;28;20116;-63
2021/07/20 13:01:54;;;;;;;0.10;0.10;;;;;;;24.01;51.42;102104.00;10417028;28;20399;-64
2021/07/20 13:06:55;;;;;;;0.10;0.10;;;;;;;23.56;53.17;102101.22;10414334;28;20120;-64
2021/07/20 13:11:56;;;;;;;0.00;0.00;;;;;;;22.98;56.80;102118.28;10414741;28;20042;-64
2021/07/20 13:16:59;;;;;;;0.10;0.10;;;;;;;22.51;56.61;102115.53;10413897;28;20108;-63
2021/07/20 13:22:00;;;;;;;0.00;0.00;;;;;;;22.04;59.03;102130.00;10413384;28;20045;-64
2021/07/20 13:27:00;;;;;;;0.00;0.00;;;;;;;21.74;59.80;102122.19;10413049;28;20552;-64
2021/07/20 13:32:06;;;;;;;0.10;0.10;;;;;;;21.73;61.70;102127.81;10414611;28;20048;-64
2021/07/20 13:37:08;;;;;;;0.10;0.10;;;;;;;21.63;60.90;102126.31;10414313;28;20033;-64
2021/07/20 13:42:09;;;;;;;0.00;0.00;;;;;;;21.51;62.89;102127.91;10394348;28;20056;-64
2021/07/20 13:47:09;;;;;;;0.00;0.00;;;;;;;21.35;62.13;102136.31;10376876;28;20061;-64
2021/07/20 13:52:11;;;;;;;0.08;0.08;;;;;;;21.46;63.14;102135.78;10368935;28;20404;-64
2021/07/20 13:57:12;;;;;;;0.10;0.10;;;;;;;21.61;63.12;102136.53;10376435;28;20030;-63
2021/07/20 14:02:15;;;;;;;0.10;0.10;;;;;;;21.74;63.14;102132.22;10386018;28;20069;-63
2021/07/20 14:07:16;;;;;;;0.00;0.00;;;;;;;21.79;62.55;102140.56;10379145;28;20048;-63
2021/07/20 14:12:18;;;;;;;0.00;0.00;;;;;;;21.59;61.66;102124.22;10422908;28;20399;-63
2021/07/20 14:17:21;;;;;;;0.00;0.00;;;;;;;21.50;62.81;102131.66;10422853;28;20029;-63
2021/07/20 14:22:24;;;;;;;0.10;0.10;;;;;;;21.59;61.32;102130.47;10406367;28;20029;-63
2021/07/20 14:27:27;;;;;;;0.00;0.00;;;;;;;21.60;62.36;102134.84;10426029;28;20079;-63
2021/07/20 14:32:28;;;;;;;0.10;0.10;;;;;;;21.63;61.34;102134.44;10405733;28;20412;-63
2021/07/20 14:37:53;;;;;;;0.00;0.00;;;;;;;21.61;62.62;102127.53;10421281;28;20025;-63
2021/07/20 14:42:56;;;;;;;0.10;0.10;;;;;;;21.69;61.59;102122.78;10405160;23;20099;-60
2021/07/20 14:47:58;;;;;;;0.10;0.10;;;;;;;21.77;62.34;102115.53;10414005;28;20084;-61
2021/07/20 14:53:16;;;;;;;0.00;0.00;;;;;;;21.70;60.95;102116.34;10411359;28;20025;-60
2021/07/20 14:58:24;;;;;;;0.10;0.10;;;;;;;21.55;60.58;102112.91;10410390;28;20559;-60
2021/07/20 15:03:40;;;;;;;0.03;0.03;;;;;;;21.59;60.57;102116.91;10412792;28;20045;-61
2021/07/20 15:09:13;;;;;;;0.10;0.10;;;;;;;21.67;60.82;102127.59;10413631;28;20120;-61
2021/07/20 15:14:16;;;;;;;0.10;0.10;;;;;;;21.90;60.17;102119.13;10400407;28;20111;-62
2021/07/20 15:19:41;;;;;;;0.10;0.10;;;;;;;21.80;59.79;102123.25;10413696;28;20033;-61
2021/07/20 15:24:44;;;;;;;0.10;0.10;;;;;;;21.67;58.80;102114.03;10412357;28;20562;-60
2021/07/20 15:29:54;;;;;;;0.00;0.00;;;;;;;21.78;60.74;102120.72;10413432;28;20032;-61
2021/07/20 15:34:55;;;;;;;0.00;0.00;;;;;;;21.78;59.68;102114.47;10411849;28;20388;-59
2021/07/20 15:39:59;;;;;;;0.10;0.10;;;;;;;21.83;61.20;102120.13;10411858;28;20025;-59
2021/07/20 15:45:18;;;;;;;0.10;0.10;;;;;;;21.33;60.15;102130.28;10411101;28;20030;-59
2021/07/20 15:50:29;;;;;;;0.10;0.10;;;;;;;20.98;62.21;102131.06;10411312;28;20488;-58
2021/07/20 15:55:30;;;;;;;0.10;0.10;;;;;;;20.86;62.61;102126.41;10426511;28;20034;-58
2021/07/20 16:00:35;;;;;;;0.10;0.10;;;;;;;20.75;61.73;102130.47;10409864;28;20154;-59
2021/07/20 16:05:37;;;;;;;0.10;0.10;;;;;;;20.68;62.65;102127.72;10409592;28;20511;-59
2021/07/20 16:10:38;;;;;;;0.10;0.10;;;;;;;20.62;63.39;102130.34;10409595;28;20053;-59
2021/07/20 16:15:40;;;;;;;0.00;0.00;;;;;;;20.58;63.63;102125.31;10410360;28;20048;-57
2021/07/20 16:20:47;;;;;;;0.00;0.00;;;;;;;20.40;63.69;102135.72;10409927;28;20025;-62
2021/07/20 16:25:47;;;;;;;0.08;0.08;;;;;;;20.16;62.08;102142.34;10410012;28;20028;-60
2021/07/20 16:30:49;;;;;;;0.10;0.10;;;;;;;20.18;63.20;102134.03;10409785;28;20087;-60
2021/07/20 16:35:49;;;;;;;0.00;0.00;;;;;;;20.07;63.78;102140.75;10407475;28;20029;-59
2021/07/20 16:41:08;;;;;;;0.00;0.00;;;;;;;19.91;62.38;102133.72;10409075;28;20030;-60
2021/07/20 16:46:18;;;;;;;0.10;0.10;;;;;;;19.83;63.79;102137.34;10410504;28;20059;-58
2021/07/20 16:51:21;;;;;;;0.10;0.10;;;;;;;19.71;64.26;102130.75;10410255;28;20045;-58
2021/07/20 16:56:29;;;;;;;0.10;0.10;;;;;;;19.58;65.20;102135.97;10410049;28;20048;-59
2021/07/20 17:01:32;;;;;;;0.10;0.10;;;;;;;19.34;65.81;102142.47;10408878;28;20034;-63
2021/07/20 17:06:34;;;;;;;0.10;0.10;;;;;;;19.30;66.86;102142.00;10408723;28;20084;-58
2021/07/20 17:11:35;;;;;;;0.10;0.10;;;;;;;19.31;67.11;102151.78;10407992;28;20075;-60
2021/07/20 17:16:40;;;;;;;0.10;0.10;;;;;;;19.27;66.68;102149.63;10407976;28;20060;-60
2021/07/20 17:21:41;;;;;;;0.10;0.10;;;;;;;19.25;67.75;102152.50;10408294;28;20022;-60
2021/07/20 17:26:47;;;;;;;0.00;0.00;;;;;;;19.16;67.31;102154.44;10408133;28;20026;-57
2021/07/20 17:31:48;;;;;;;0.10;0.10;;;;;;;19.10;68.26;102165.16;10422566;28;20029;-59
2021/07/20 17:36:49;;;;;;;0.10;0.10;;;;;;;18.99;69.05;102172.69;10407175;28;20029;-59
2021/07/20 17:46:56;;;;;;;0.10;0.10;;;;;;;18.72;70.89;102168.63;10407797;28;20047;-58
2021/07/20 17:51:56;;;;;;;0.00;0.00;;;;;;;18.68;71.55;102167.34;10406953;28;20037;-60
2021/07/20 17:56:56;;;;;;;0.00;0.00;;;;;;;18.61;71.14;102171.75;10407560;28;20370;-60
2021/07/20 18:01:57;;;;;;;0.00;0.00;;;;;;;18.52;71.37;102172.84;10407182;28;20049;-59
2021/07/20 18:06:58;;;;;;;0.08;0.08;;;;;;;18.48;72.31;102171.53;10407666;28;20045;-59
2021/07/20 18:11:58;;;;;;;0.10;0.10;;;;;;;18.43;72.39;102176.63;10421793;28;20087;-59
2021/07/20 18:16:59;;;;;;;0.10;0.10;;;;;;;18.37;72.68;102174.63;10407113;28;20026;-60
2021/07/20 18:21:59;;;;;;;0.10;0.10;;;;;;;18.25;73.29;102175.03;10406833;28;20033;-59
2021/07/20 18:27:00;;;;;;;0.10;0.10;;;;;;;18.19;74.08;102180.28;10407127;28;20033;-59
2021/07/20 18:32:01;;;;;;;0.00;0.00;;;;;;;18.12;74.52;102177.44;10406400;28;20395;-60
2021/07/20 18:37:01;;;;;;;0.00;0.00;;;;;;;18.04;74.78;102178.34;10407095;28;20260;-59
2021/07/20 18:42:02;;;;;;;0.10;0.10;;;;;;;17.98;75.84;102184.44;10405733;28;20037;-58
2021/07/20 18:47:03;;;;;;;0.10;0.10;;;;;;;17.92;76.61;102189.66;10411143;28;20101;-60
2021/07/20 18:52:04;;;;;;;0.00;0.00;;;;;;;17.85;77.00;102189.53;10413566;28;20103;-59
2021/07/20 18:57:04;;;;;;;0.10;0.10;;;;;;;17.82;76.98;102197.97;10413438;28;20076;-58
2021/07/20 19:02:04;;;;;;;0.00;0.00;;;;;;;17.77;77.31;102201.16;10413435;28;20481;-59
2021/07/20 19:07:05;;;;;;;0.00;0.00;;;;;;;17.74;77.67;102198.78;10413276;28;20559;-59
2021/07/20 19:12:05;;;;;;;0.00;0.00;;;;;;;17.70;77.94;102208.25;10405253;28;20037;-60
2021/07/20 19:17:06;;;;;;;0.10;0.10;;;;;;;17.71;78.08;102203.69;10413308;28;20052;-56
2021/07/20 19:22:06;;;;;;;0.00;0.00;;;;;;;17.69;78.49;102206.56;10412182;28;20063;-59
2021/07/20 19:27:06;;;;;;;0.10;0.10;;;;;;;17.65;78.88;102214.13;10412760;28;20500;-58
2021/07/20 19:32:06;;;;;;;0.00;0.00;;;;;;;17.60;78.89;102221.91;10411898;28;20242;-57
2021/07/20 19:37:07;;;;;;;0.10;0.10;;;;;;;17.54;78.84;102233.38;10412478;28;20036;-60
2021/07/20 19:42:07;;;;;;;0.10;0.10;;;;;;;17.46;79.14;102244.16;10410872;28;20088;-59
2021/07/20 19:47:08;;;;;;;0.10;0.10;;;;;;;17.36;80.64;102240.78;10411873;28;20029;-60
2021/07/20 19:52:09;;;;;;;0.00;0.00;;;;;;;17.27;81.19;102237.25;10411412;28;20260;-59
2021/07/20 19:57:09;;;;;;;0.05;0.05;;;;;;;17.25;81.51;102241.13;10407018;28;20025;-60
2021/07/20 20:02:10;;;;;;;0.00;0.00;;;;;;;17.22;81.82;102245.03;10411412;28;20037;-58
2021/07/20 20:07:10;;;;;;;0.08;0.08;;;;;;;17.17;82.08;102237.44;10411303;28;20037;-59
2021/07/20 20:12:11;;;;;;;0.10;0.10;;;;;;;17.16;82.53;102246.53;10410152;28;20507;-60
2021/07/20 20:17:11;;;;;;;0.10;0.10;;;;;;;17.17;83.14;102247.38;10410878;28;20257;-61
2021/07/20 20:22:11;;;;;;;0.00;0.00;;;;;;;17.16;82.75;102248.38;10409810;28;20417;-57
2021/07/20 20:27:12;;;;;;;0.00;0.00;;;;;;;17.14;82.42;102247.72;10405527;28;20288;-57
2021/07/20 20:32:12;;;;;;;0.10;0.10;;;;;;;17.12;82.29;102255.09;10411449;28;20033;-59
2021/07/20 20:37:12;;;;;;;0.00;0.00;;;;;;;17.09;82.70;102261.66;10411417;28;20049;-59
2021/07/20 20:42:12;;;;;;;0.10;0.10;;;;;;;17.08;82.74;102259.16;10411078;28;20036;-59
2021/07/20 20:47:13;;;;;;;0.00;0.00;;;;;;;17.06;82.95;102263.84;10411093;28;20041;-60
2021/07/20 20:52:13;;;;;;;0.10;0.10;;;;;;;17.05;82.99;102264.88;10410480;28;20100;-59
2021/07/20 20:57:14;;;;;;;0.10;0.10;;;;;;;17.05;83.59;102264.88;10409000;28;20034;-59
2021/07/20 21:02:14;;;;;;;0.10;0.10;;;;;;;17.03;83.41;102270.41;10408473;28;20252;-61
2021/07/20 21:07:15;;;;;;;0.10;0.10;;;;;;;17.02;83.63;102266.03;10408531;28;20044;-58
2021/07/20 21:12:15;;;;;;;0.00;0.00;;;;;;;17.00;83.76;102268.06;10408394;28;20135;-57
2021/07/20 21:17:19;;;;;;;0.00;0.00;;;;;;;17.00;84.17;102275.28;10410178;28;20443;-58
2021/07/20 21:22:19;;;;;;;0.00;0.00;;;;;;;16.99;84.08;102274.47;10407452;28;20025;-60
2021/07/20 21:27:20;;;;;;;0.00;0.00;;;;;;;16.98;84.08;102275.44;10408068;28;20385;-60
2021/07/20 21:32:21;;;;;;;0.00;0.00;;;;;;;16.98;84.19;102273.59;10406482;28;20033;-59
2021/07/20 21:37:21;;;;;;;0.10;0.10;;;;;;;16.97;84.05;102268.38;10390054;28;20025;-59
2021/07/20 21:42:22;;;;;;;0.10;0.10;;;;;;;16.97;84.50;102265.69;10407617;28;20435;-58
2021/07/20 21:47:23;;;;;;;0.10;0.10;;;;;;;16.96;84.52;102266.72;10407985;28;20025;-58
2021/07/20 21:52:23;;;;;;;0.10;0.10;;;;;;;16.95;84.87;102268.53;10407986;28;20400;-59
2021/07/20 21:57:24;;;;;;;0.00;0.00;;;;;;;16.95;84.63;102273.09;10407575;28;20034;-58
2021/07/20 22:02:25;;;;;;;0.10;0.10;;;;;;;16.92;84.67;102266.19;10408806;28;20420;-59
2021/07/20 22:07:25;;;;;;;0.10;0.10;;;;;;;16.91;84.70;102272.59;10410364;28;20021;-59
2021/07/20 22:12:25;;;;;;;0.10;0.10;;;;;;;16.92;84.89;102276.09;10410875;28;20057;-57
2021/07/20 22:17:26;;;;;;;0.10;0.10;;;;;;;16.91;84.84;102267.19;10404840;28;20043;-60
2021/07/20 22:22:26;;;;;;;0.00;0.00;;;;;;;16.92;84.80;102268.03;10412040;28;20060;-58
2021/07/20 22:27:26;;;;;;;0.10;0.10;;;;;;;16.93;84.82;102275.13;10415405;28;20060;-57
2021/07/20 22:32:27;;;;;;;0.10;0.10;;;;;;;16.92;84.76;102279.63;10414529;28;20272;-57
2021/07/20 22:37:27;;;;;;;0.10;0.10;;;;;;;16.92;85.15;102279.63;10414924;28;20033;-57
2021/07/20 22:42:30;;;;;;;0.10;0.10;;;;;;;16.90;85.20;102272.72;10416701;28;20496;-58
2021/07/20 22:47:30;;;;;;;0.00;0.00;;;;;;;16.87;85.12;102282.00;10416774;28;20389;-58
2021/07/20 22:52:30;;;;;;;0.10;0.10;;;;;;;16.86;85.45;102274.09;10426415;28;20034;-57
2021/07/20 22:57:31;;;;;;;0.10;0.10;;;;;;;16.85;85.43;102280.47;10413918;28;20491;-57
2021/07/20 23:02:32;;;;;;;0.10;0.10;;;;;;;16.84;85.74;102274.25;10412129;28;20503;-56
2021/07/20 23:07:32;;;;;;;0.10;0.10;;;;;;;16.84;85.79;102274.25;10413506;28;20045;-58
2021/07/20 23:12:32;;;;;;;0.10;0.10;;;;;;;16.84;86.05;102276.09;10412596;28;20025;-59
2021/07/20 23:17:33;;;;;;;0.03;0.03;;;;;;;16.83;86.10;102277.09;10411637;28;20111;-57
2021/07/20 23:22:33;;;;;;;0.00;0.00;;;;;;;16.82;85.78;102273.59;10412312;28;20492;-58
2021/07/20 23:27:35;;;;;;;0.00;0.00;;;;;;;16.82;86.16;102267.34;10412940;28;20040;-60
2021/07/20 23:32:35;;;;;;;0.10;0.10;;;;;;;16.82;85.75;102275.44;10411751;28;20041;-57
2021/07/20 23:37:36;;;;;;;0.00;0.00;;;;;;;16.83;85.76;102277.94;10412648;28;20428;-57
2021/07/20 23:42:37;;;;;;;0.10;0.10;;;;;;;16.83;85.86;102275.25;10410428;28;20049;-60
2021/07/20 23:47:43;;;;;;;0.03;0.03;;;;;;;16.83;85.39;102271.72;10409679;28;20037;-60
2021/07/20 23:52:43;;;;;;;0.05;0.05;;;;;;;16.85;85.96;102272.41;10411711;28;20069;-58
2021/07/20 23:57:44;;;;;;;0.00;0.00;;;;;;;16.85;86.02;102272.41;10410308;28;20121;-57
